Time;durP1;ratioP1;P1;durP2;ratioP2;P2;SDS_P1;SDS_P2;PMS_P1;PMS_P2;Temp;Humidity;BMP_temperature;BMP_pressure;BME280_temperature;BME280_humidity;BME280_pressure;Samples;Min_cycle;Max_cycle;Signal;HPM_P1;HPM_P2
2022/12/29 00:02:02;;;;;;;10.52;7.03;;;;;;;4.62;72.30;94324.31;5065991;28;20419;-44
2022/12/29 00:04:27;;;;;;;10.60;8.63;;;;;;;4.55;71.68;94306.38;5067931;28;20025;-42
2022/12/29 00:06:54;;;;;;;10.95;7.57;;;;;;;4.55;72.05;94314.59;5068563;28;20025;-43
2022/12/29 00:09:19;;;;;;;9.07;5.90;;;;;;;4.50;72.98;94322.78;5072383;28;20035;-43
2022/12/29 00:11:44;;;;;;;14.20;7.82;;;;;;;4.53;72.79;94321.78;5076258;28;20020;-42
2022/12/29 00:16:55;;;;;;;9.18;7.53;;;;;;;4.48;72.31;94325.25;5073122;28;20116;-43
2022/12/29 00:35:55;;;;;;;18.83;9.50;;;;;;;4.13;73.37;94350.09;5071784;28;20047;-41
2022/12/29 00:44:12;;;;;;;17.83;7.90;;;;;;;3.98;74.64;94341.28;5044281;28;20384;-42
2022/12/29 00:46:39;;;;;;;43.05;19.30;;;;;;;3.88;74.26;94326.28;5063142;28;20133;-43
2022/12/29 00:51:50;;;;;;;36.17;18.55;;;;;;;3.83;74.34;94338.66;5067899;28;20066;-42
2022/12/29 00:54:16;;;;;;;22.70;12.60;;;;;;;3.65;75.00;94336.28;5069390;28;20028;-42
2022/12/29 00:56:41;;;;;;;15.75;9.35;;;;;;;3.66;75.25;94337.03;5071335;28;20024;-41
2022/12/29 00:59:09;;;;;;;37.78;20.30;;;;;;;3.63;75.46;94335.25;5074686;28;20484;-41
2022/12/29 01:01:35;;;;;;;61.70;30.42;;;;;;;3.49;75.54;94338.84;5067796;28;20036;-42
2022/12/29 01:04:00;;;;;;;16.88;11.13;;;;;;;3.44;76.31;94334.09;5075872;28;20044;-43
2022/12/29 01:06:26;;;;;;;12.82;8.15;;;;;;;3.43;76.06;94338.78;5064458;28;20123;-42
2022/12/29 01:11:36;;;;;;;16.83;8.68;;;;;;;3.24;76.61;94328.66;5071357;28;20034;-42
2022/12/29 01:14:02;;;;;;;11.18;6.53;;;;;;;3.18;76.77;94328.59;5062880;28;20032;-41
2022/12/29 01:16:27;;;;;;;16.88;11.10;;;;;;;3.16;76.60;94319.41;5065454;28;20055;-41
2022/12/29 01:18:52;;;;;;;10.43;7.55;;;;;;;3.09;76.94;94317.84;5078876;28;20032;-41
2022/12/29 01:21:18;;;;;;;7.90;5.43;;;;;;;3.04;77.72;94313.06;5064658;28;20038;-43
2022/12/29 01:23:44;;;;;;;14.88;9.25;;;;;;;3.14;77.61;94319.13;5064473;28;20538;-39
2022/12/29 01:26:10;;;;;;;28.23;14.77;;;;;;;3.03;76.62;94306.13;5070376;28;20503;-40
2022/12/29 01:28:38;;;;;;;11.23;8.15;;;;;;;2.95;78.03;94316.69;5069120;28;20033;-39
2022/12/29 01:31:04;;;;;;;44.42;21.90;;;;;;;2.84;77.81;94289.28;5064779;28;20111;-39
2022/12/29 01:33:30;;;;;;;68.70;30.13;;;;;;;3.00;77.82;94313.28;5069188;28;20131;-40
2022/12/29 01:36:00;;;;;;;13.20;8.75;;;;;;;2.99;78.66;94316.47;5070745;28;20032;-39
2022/12/29 01:38:25;;;;;;;23.20;12.07;;;;;;;3.06;78.32;94313.31;5069583;28;20055;-39
2022/12/29 01:40:51;;;;;;;24.25;11.68;;;;;;;2.98;78.13;94306.78;5069049;28;20063;-39
2022/12/29 01:43:16;;;;;;;66.78;24.23;;;;;;;2.98;78.66;94304.06;5065724;28;20071;-39
2022/12/29 01:45:49;;;;;;;17.77;9.43;;;;;;;3.07;78.58;94298.47;5069306;28;20025;-39
2022/12/29 01:48:15;;;;;;;9.63;7.15;;;;;;;3.04;78.72;94305.63;5062570;28;20035;-39
2022/12/29 01:50:45;;;;;;;10.10;7.95;;;;;;;3.00;78.33;94301.59;5094557;28;20115;-39
2022/12/29 01:53:15;;;;;;;12.05;9.10;;;;;;;3.01;78.46;94297.66;5080738;28;20036;-42
2022/12/29 01:55:44;;;;;;;9.75;7.28;;;;;;;2.90;78.00;94287.34;5070418;28;20098;-41
2022/12/29 01:58:11;;;;;;;11.63;6.45;;;;;;;2.73;79.95;94288.41;5102217;28;20048;-42
2022/12/29 02:00:37;;;;;;;9.75;7.55;;;;;;;2.40;79.97;94242.41;5111584;28;20044;-41
2022/12/29 02:03:04;;;;;;;7.78;5.85;;;;;;;2.70;79.96;94275.72;5065883;28;20068;-41
2022/12/29 02:05:38;;;;;;;12.05;9.43;;;;;;;2.77;80.37;94283.50;5064004;28;20116;-41
2022/12/29 02:08:04;;;;;;;11.60;8.35;;;;;;;2.68;80.80;94280.91;5066841;28;20496;-41
2022/12/29 02:10:31;;;;;;;10.43;7.05;;;;;;;2.66;81.34;94289.56;5074405;28;20044;-41
2022/12/29 02:12:57;;;;;;;9.27;6.15;;;;;;;2.72;81.78;94284.94;5107618;28;20043;-42
2022/12/29 02:15:36;;;;;;;10.40;6.93;;;;;;;2.87;80.93;94282.13;5070888;28;20032;-42
2022/12/29 02:18:25;;;;;;;9.57;6.43;;;;;;;2.97;80.04;94280.72;5064933;28;20028;-43
2022/12/29 02:21:27;;;;;;;8.05;5.47;;;;;;;2.99;79.71;94284.47;5061076;28;20127;-43
2022/12/29 02:24:14;;;;;;;9.45;6.55;;;;;;;2.95;80.09;94275.00;5064417;28;20043;-40
2022/12/29 02:26:53;;;;;;;8.13;6.05;;;;;;;2.91;80.41;94277.97;5060173;28;20036;-39
2022/12/29 02:29:52;;;;;;;10.60;7.03;;;;;;;2.84;79.66;94266.69;5069345;28;20032;-40
2022/12/29 02:32:36;;;;;;;9.13;5.78;;;;;;;2.82;79.51;94275.38;5067980;28;20131;-39
2022/12/29 02:35:54;;;;;;;10.23;7.63;;;;;;;2.81;79.97;94278.59;5070169;28;20094;-40
2022/12/29 02:38:57;;;;;;;9.93;7.13;;;;;;;2.75;80.03;94277.78;5062346;28;20045;-40
2022/12/29 02:41:34;;;;;;;10.07;7.22;;;;;;;2.61;79.71;94271.16;5073159;28;20024;-41
2022/12/29 02:44:20;;;;;;;9.38;6.43;;;;;;;2.70;79.53;94265.56;5069176;28;20040;-41
2022/12/29 02:46:47;;;;;;;8.00;4.80;;;;;;;2.73;78.48;94278.22;5069675;28;20126;-42
2022/12/29 02:49:13;;;;;;;9.85;5.40;;;;;;;2.50;79.25;94279.19;5064049;28;20040;-41
2022/12/29 02:51:46;;;;;;;8.20;5.00;;;;;;;2.49;79.29;94269.50;5072981;28;20060;-43
2022/12/29 02:56:56;;;;;;;7.03;5.15;;;;;;;2.40;78.68;94283.28;5075418;28;20110;-42
2022/12/29 02:59:22;;;;;;;9.80;6.65;;;;;;;2.48;78.65;94273.47;5075286;28;20016;-41
2022/12/29 03:02:20;;;;;;;10.32;7.15;;;;;;;2.20;79.50;94273.09;5065301;28;20416;-41
2022/12/29 03:05:12;;;;;;;7.63;5.88;;;;;;;2.16;80.82;94277.25;5075232;28;20103;-40
2022/12/29 03:07:47;;;;;;;8.25;5.45;;;;;;;2.26;80.32;94273.16;5064533;28;20483;-40
2022/12/29 03:10:24;;;;;;;8.13;5.45;;;;;;;2.14;80.46;94274.25;5060317;28;20461;-42
2022/12/29 03:16:04;;;;;;;8.88;6.55;;;;;;;1.98;81.09;94263.88;5067296;28;20128;-42
2022/12/29 03:18:35;;;;;;;8.23;6.25;;;;;;;2.04;81.12;94279.06;5070794;28;20039;-41
2022/12/29 03:21:05;;;;;;;6.93;5.30;;;;;;;1.84;81.19;94278.28;5065104;28;20630;-41
2022/12/29 03:23:32;;;;;;;7.70;5.75;;;;;;;1.71;81.54;94277.81;5067066;28;20496;-41
2022/12/29 03:26:02;;;;;;;6.40;4.75;;;;;;;1.82;81.30;94283.44;5106063;27;20032;-41
2022/12/29 03:28:35;;;;;;;11.65;5.65;;;;;;;1.57;81.68;94267.69;5075673;28;20456;-43
2022/12/29 03:31:03;;;;;;;8.05;5.25;;;;;;;1.79;81.10;94276.22;5101911;27;20040;-40
2022/12/29 03:33:30;;;;;;;8.70;5.35;;;;;;;1.55;81.24;94284.50;5070917;28;20032;-40
2022/12/29 03:36:02;;;;;;;12.32;4.45;;;;;;;1.47;82.50;94280.66;5071481;28;20039;-40
2022/12/29 03:38:44;;;;;;;7.78;5.70;;;;;;;1.38;83.45;94275.31;5108480;27;20032;-42
2022/12/29 03:41:13;;;;;;;8.98;4.90;;;;;;;1.49;83.21;94278.94;5071029;28;20093;-42
2022/12/29 03:43:38;;;;;;;7.10;5.07;;;;;;;1.59;82.94;94274.16;5070975;28;20025;-41
2022/12/29 03:46:04;;;;;;;8.07;4.43;;;;;;;1.64;82.37;94278.94;5071198;28;20492;-42
2022/12/29 03:48:29;;;;;;;7.90;5.20;;;;;;;1.51;82.70;94281.97;5069340;28;20032;-43
2022/12/29 03:50:54;;;;;;;6.32;4.40;;;;;;;1.56;83.97;94291.41;5070889;28;20020;-40
2022/12/29 03:53:21;;;;;;;9.05;4.68;;;;;;;1.66;84.42;94289.34;5067818;28;20029;-44
2022/12/29 03:55:46;;;;;;;7.78;5.43;;;;;;;1.63;84.43;94280.16;5064680;28;20050;-41
2022/12/29 03:58:12;;;;;;;11.65;6.70;;;;;;;1.75;84.20;94276.41;5071797;28;20032;-42
2022/12/29 04:00:37;;;;;;;8.73;5.65;;;;;;;1.69;84.46;94280.25;5071506;28;20150;-42
2022/12/29 04:03:02;;;;;;;10.02;5.35;;;;;;;1.57;83.35;94270.41;5063818;28;20025;-41
2022/12/29 04:05:28;;;;;;;4.43;3.92;;;;;;;1.66;82.22;94278.47;5069101;28;20025;-41
2022/12/29 04:07:53;;;;;;;12.07;5.47;;;;;;;1.63;81.89;94276.69;5067308;28;20041;-42
2022/12/29 04:10:19;;;;;;;34.92;8.82;;;;;;;1.55;81.78;94279.06;5066974;28;20555;-41
2022/12/29 04:12:46;;;;;;;26.70;14.82;;;;;;;1.34;83.30;94280.19;5071288;28;20455;-42
2022/12/29 04:15:12;;;;;;;13.07;8.48;;;;;;;1.37;82.56;94279.22;5068927;28;20029;-44
2022/12/29 04:17:37;;;;;;;13.52;9.27;;;;;;;1.22;83.17;94262.91;5069852;28;20526;-41
2022/12/29 04:22:47;;;;;;;6.45;5.13;;;;;;;1.19;83.80;94263.84;5069702;28;20035;-43
2022/12/29 04:25:13;;;;;;;10.80;6.15;;;;;;;1.28;83.11;94258.31;5067516;28;20043;-42
2022/12/29 04:27:38;;;;;;;9.60;5.88;;;;;;;1.28;82.05;94258.31;5062565;28;20040;-42
2022/12/29 04:30:04;;;;;;;14.63;9.45;;;;;;;1.22;82.68;94262.91;5075974;28;20020;-41
2022/12/29 04:32:29;;;;;;;17.98;11.23;;;;;;;1.06;82.12;94260.66;5068594;28;20037;-39
2022/12/29 04:34:55;;;;;;;14.25;8.70;;;;;;;1.14;82.36;94267.22;5064145;28;20059;-39
2022/12/29 04:37:20;;;;;;;27.73;14.80;;;;;;;1.12;82.44;94272.41;5067112;28;20034;-40
2022/12/29 04:39:46;;;;;;;30.25;15.55;;;;;;;1.19;82.95;94272.00;5069202;28;20035;-40
2022/12/29 04:42:11;;;;;;;19.45;12.77;;;;;;;1.10;83.10;94276.78;5068350;28;20031;-39
2022/12/29 04:44:36;;;;;;;25.48;13.88;;;;;;;1.03;83.14;94279.88;5062176;28;20032;-40
2022/12/29 04:47:02;;;;;;;25.77;13.90;;;;;;;0.98;82.28;94277.78;5066307;28;20048;-39
2022/12/29 04:49:27;;;;;;;23.23;13.75;;;;;;;0.72;82.77;94277.56;5065479;28;20056;-40
2022/12/29 04:51:53;;;;;;;80.03;39.28;;;;;;;0.52;83.37;94280.16;5066667;28;20440;-39
2022/12/29 04:54:18;;;;;;;36.20;21.08;;;;;;;0.54;83.82;94291.31;5064060;28;20033;-40
2022/12/29 04:56:44;;;;;;;48.47;27.35;;;;;;;0.43;83.68;94293.78;5070135;28;20036;-39
2022/12/29 04:59:09;;;;;;;23.02;15.63;;;;;;;0.33;84.97;94300.47;5058051;28;20036;-40
2022/12/29 05:01:34;;;;;;;22.83;17.58;;;;;;;0.51;85.14;94294.94;5058424;28;20024;-40
2022/12/29 05:04:00;;;;;;;24.27;13.88;;;;;;;0.40;85.26;94295.47;5070849;28;20033;-39
2022/12/29 05:06:25;;;;;;;17.05;9.90;;;;;;;0.39;84.49;94299.38;5066114;28;20028;-39
2022/12/29 05:08:51;;;;;;;13.38;8.80;;;;;;;0.24;85.17;94298.56;5067458;28;20089;-40
2022/12/29 05:11:16;;;;;;;20.05;8.30;;;;;;;0.14;85.43;94304.50;5064734;28;20028;-40
2022/12/29 05:13:45;;;;;;;14.68;7.47;;;;;;;0.24;85.23;94295.84;5076529;28;20032;-40
2022/12/29 05:16:11;;;;;;;11.07;7.15;;;;;;;0.44;83.70;94301.47;5066505;28;20020;-39
2022/12/29 05:18:36;;;;;;;8.30;6.60;;;;;;;0.40;83.17;94305.56;5072067;28;20028;-42
2022/12/29 05:21:02;;;;;;;46.58;18.55;;;;;;;0.46;83.88;94311.88;5068573;28;20029;-44
2022/12/29 05:23:27;;;;;;;86.75;29.17;;;;;;;0.51;83.27;94308.50;5066501;28;20484;-47
2022/12/29 05:25:52;;;;;;;78.60;28.63;;;;;;;0.47;82.89;94305.22;5066292;28;20085;-44
2022/12/29 05:28:18;;;;;;;73.30;24.00;;;;;;;0.34;83.30;94308.19;5062004;28;20085;-43
2022/12/29 05:30:43;;;;;;;57.13;22.80;;;;;;;0.23;83.45;94290.88;5067095;28;20032;-43
2022/12/29 05:33:11;;;;;;;53.72;22.02;;;;;;;0.42;83.33;94309.31;5067143;28;20378;-47
2022/12/29 05:35:36;;;;;;;42.97;18.85;;;;;;;0.22;83.57;94311.84;5075032;28;20053;-45
2022/12/29 05:38:02;;;;;;;38.85;17.77;;;;;;;0.14;83.80;94310.69;5070950;28;20039;-43
2022/12/29 05:40:27;;;;;;;39.17;16.63;;;;;;;0.00;84.88;94320.25;5063220;28;20028;-44
2022/12/29 05:42:53;;;;;;;30.20;16.90;;;;;;;-0.04;85.28;94327.06;5066318;28;20032;-42
2022/12/29 05:45:18;;;;;;;31.10;15.63;;;;;;;0.19;84.67;94326.38;5058367;28;20044;-44
2022/12/29 05:47:43;;;;;;;27.55;15.90;;;;;;;0.10;84.64;94322.94;5061716;28;20037;-43
2022/12/29 05:50:09;;;;;;;36.05;18.30;;;;;;;-0.04;85.27;94319.69;5062957;28;20033;-40
2022/12/29 05:52:34;;;;;;;29.08;14.23;;;;;;;-0.10;85.02;94320.75;5066652;28;20036;-40
2022/12/29 05:55:00;;;;;;;36.13;17.83;;;;;;;0.19;84.60;94320.94;5069355;28;20108;-41
2022/12/29 05:57:25;;;;;;;31.75;15.23;;;;;;;0.26;83.72;94328.72;5070819;28;21249;-40
2022/12/29 05:59:51;;;;;;;43.08;18.20;;;;;;;0.19;83.42;94322.91;5064140;28;20031;-40
2022/12/29 06:02:16;;;;;;;34.50;15.13;;;;;;;0.32;83.05;94326.91;5063646;28;20036;-40
2022/12/29 06:04:43;;;;;;;29.02;17.05;;;;;;;0.41;83.47;94326.81;5066467;28;20039;-41
2022/12/29 06:07:09;;;;;;;25.33;16.60;;;;;;;0.41;83.20;94324.09;5064267;28;20051;-41
2022/12/29 06:09:35;;;;;;;33.38;16.35;;;;;;;0.45;82.30;94326.66;5062591;28;20025;-40
2022/12/29 06:12:00;;;;;;;31.85;17.90;;;;;;;0.43;82.17;94327.13;5068371;28;20033;-41
2022/12/29 06:14:26;;;;;;;54.75;25.98;;;;;;;0.56;82.37;94329.63;5068297;28;20549;-41
2022/12/29 06:16:51;;;;;;;59.80;30.35;;;;;;;0.51;81.96;94324.81;5065251;28;20040;-41
2022/12/29 06:19:17;;;;;;;49.05;25.83;;;;;;;0.58;82.51;94321.75;5074025;28;20078;-41
2022/12/29 06:21:42;;;;;;;45.47;23.50;;;;;;;0.63;82.02;94323.81;5078950;28;20691;-41
2022/12/29 06:24:07;;;;;;;42.28;24.13;;;;;;;0.48;82.44;94328.44;5074917;28;20036;-41
2022/12/29 06:26:33;;;;;;;46.83;24.00;;;;;;;0.60;82.22;94322.03;5072271;28;20040;-40
2022/12/29 06:28:58;;;;;;;40.33;22.45;;;;;;;0.44;82.78;94325.91;5073995;28;20035;-40
2022/12/29 06:31:25;;;;;;;39.85;23.88;;;;;;;0.57;82.40;94328.41;5082936;28;20533;-40
2022/12/29 06:33:51;;;;;;;53.97;27.65;;;;;;;0.49;82.13;94327.25;5075539;28;20054;-40
2022/12/29 06:36:16;;;;;;;52.97;26.58;;;;;;;0.42;82.50;94324.88;5072842;28;20539;-40
2022/12/29 06:38:42;;;;;;;51.85;25.60;;;;;;;0.48;82.60;94323.00;5076779;28;20119;-40
2022/12/29 06:41:07;;;;;;;51.15;25.10;;;;;;;0.41;82.65;94323.38;5072702;28;20028;-40
2022/12/29 06:43:33;;;;;;;49.28;25.15;;;;;;;0.61;81.95;94323.53;5075232;28;20482;-41
2022/12/29 06:46:00;;;;;;;41.50;22.35;;;;;;;0.62;82.09;94327.75;5069377;28;20021;-40
2022/12/29 06:48:26;;;;;;;40.92;22.45;;;;;;;0.70;81.95;94331.63;5070699;28;20530;-42
2022/12/29 06:50:51;;;;;;;31.13;16.20;;;;;;;0.60;81.61;94330.19;5069936;28;20040;-43
2022/12/29 06:53:17;;;;;;;25.63;13.02;;;;;;;0.73;80.77;94338.88;5075978;28;20012;-44
2022/12/29 06:55:42;;;;;;;18.02;11.05;;;;;;;0.69;80.20;94316.56;5070714;28;20445;-41
2022/12/29 06:58:08;;;;;;;29.92;15.68;;;;;;;0.82;80.35;94338.03;5070050;28;20501;-42
2022/12/29 07:00:33;;;;;;;28.98;17.48;;;;;;;0.87;80.75;94338.16;5077804;28;20035;-41
2022/12/29 07:02:59;;;;;;;34.13;17.17;;;;;;;0.91;81.10;94333.28;5071212;28;20887;-41
2022/12/29 07:05:27;;;;;;;39.80;18.25;;;;;;;1.31;81.59;94349.13;5069038;28;20069;-40
2022/12/29 07:07:53;;;;;;;30.20;16.67;;;;;;;1.92;80.51;94339.28;5074898;28;20030;-42
2022/12/29 07:10:18;;;;;;;25.60;14.82;;;;;;;2.53;76.75;94342.91;5074892;28;20040;-43
2022/12/29 07:12:44;;;;;;;54.20;28.63;;;;;;;3.00;74.74;94345.25;5076374;28;20016;-41
2022/12/29 07:15:10;;;;;;;34.63;20.73;;;;;;;3.45;72.38;94346.50;5078323;28;20027;-42
2022/12/29 07:17:35;;;;;;;43.47;23.75;;;;;;;3.92;71.07;94354.13;5076620;28;20499;-45
2022/12/29 07:20:00;;;;;;;49.22;26.33;;;;;;;4.10;69.55;94310.06;5076607;28;20030;-44
2022/12/29 07:22:26;;;;;;;35.67;21.05;;;;;;;4.60;68.50;94349.44;5081558;28;20021;-45
2022/12/29 07:24:51;;;;;;;91.30;45.67;;;;;;;4.13;69.09;94346.63;5077748;28;20043;-43
2022/12/29 07:27:17;;;;;;;45.13;28.55;;;;;;;4.63;68.00;94353.91;5075858;28;20028;-43
2022/12/29 07:29:42;;;;;;;50.65;28.40;;;;;;;5.01;66.88;94349.91;5075994;28;20507;-43
2022/12/29 07:32:08;;;;;;;47.65;31.27;;;;;;;5.32;65.66;94344.31;5081554;28;20031;-42
2022/12/29 07:34:33;;;;;;;51.95;31.65;;;;;;;5.25;65.90;94344.78;5071299;28;20075;-42
2022/12/29 07:36:59;;;;;;;50.90;29.27;;;;;;;5.48;66.32;94351.06;5077194;28;20036;-41
2022/12/29 07:39:24;;;;;;;35.63;23.48;;;;;;;5.82;65.78;94344.44;5078203;28;20102;-44
2022/12/29 07:41:50;;;;;;;31.30;22.08;;;;;;;5.64;64.70;94347.63;5078093;28;21659;-42
2022/12/29 07:44:15;;;;;;;26.80;20.45;;;;;;;5.87;64.71;94351.91;5082192;28;20453;-43
2022/12/29 07:46:41;;;;;;;38.63;24.85;;;;;;;5.96;63.66;94342.72;5073720;28;20052;-43
2022/12/29 07:49:06;;;;;;;25.30;18.85;;;;;;;6.37;63.30;94340.97;5080336;28;20024;-42
2022/12/29 07:51:32;;;;;;;51.13;33.72;;;;;;;6.65;62.30;94338.94;5078462;28;20024;-42
2022/12/29 07:54:00;;;;;;;46.95;31.52;;;;;;;6.92;61.62;94336.63;5067891;28;20039;-49
2022/12/29 07:56:26;;;;;;;34.33;25.48;;;;;;;7.28;60.77;94336.25;5073586;28;20061;-43
2022/12/29 07:58:51;;;;;;;24.33;17.10;;;;;;;8.01;59.29;94331.13;5066957;28;20028;-45
2022/12/29 08:01:16;;;;;;;34.63;24.48;;;;;;;8.81;56.74;94334.22;5069923;28;20024;-42
2022/12/29 08:03:42;;;;;;;30.17;20.75;;;;;;;9.79;53.95;94331.53;5073120;28;20032;-44
2022/12/29 08:06:12;;;;;;;17.05;14.88;;;;;;;10.52;51.28;94323.69;5078057;28;20078;-43
2022/12/29 08:08:38;;;;;;;22.40;17.92;;;;;;;11.42;48.89;94321.53;5070498;28;20025;-42
2022/12/29 08:11:03;;;;;;;21.20;14.45;;;;;;;12.12;46.61;94330.88;5068679;28;20016;-43
2022/12/29 08:13:29;;;;;;;16.02;11.95;;;;;;;12.70;45.54;94332.53;5075613;28;20016;-43
2022/12/29 08:15:55;;;;;;;14.27;9.75;;;;;;;13.28;44.16;94327.25;5071754;28;20032;-43
2022/12/29 08:18:20;;;;;;;12.00;9.48;;;;;;;13.98;42.79;94325.00;5072564;28;20055;-43
2022/12/29 08:20:45;;;;;;;23.45;17.27;;;;;;;14.61;41.14;94328.91;5074678;28;20023;-46
2022/12/29 08:23:11;;;;;;;19.95;14.13;;;;;;;15.15;39.99;94320.00;5075773;28;20024;-44
2022/12/29 08:25:36;;;;;;;20.23;16.05;;;;;;;15.30;39.78;94322.03;5076953;28;20031;-41
2022/12/29 08:28:02;;;;;;;17.88;15.93;;;;;;;15.39;39.33;94313.09;5071477;28;20028;-42
2022/12/29 08:30:27;;;;;;;18.40;14.82;;;;;;;16.11;38.05;94324.41;5070342;28;20028;-43
2022/12/29 08:32:53;;;;;;;13.45;11.50;;;;;;;16.39;37.65;94321.28;5063449;28;20031;-42
2022/12/29 08:35:18;;;;;;;11.48;9.07;;;;;;;16.64;36.94;94324.88;5064544;28;20055;-42
2022/12/29 08:37:44;;;;;;;10.45;8.70;;;;;;;17.00;36.33;94324.41;5066538;28;20021;-41
2022/12/29 08:40:10;;;;;;;6.75;6.05;;;;;;;17.15;35.68;94320.78;5069138;28;20028;-41
2022/12/29 08:42:35;;;;;;;6.70;5.72;;;;;;;16.71;36.15;94317.03;5069719;28;20531;-42
2022/12/29 08:45:01;;;;;;;8.82;5.80;;;;;;;16.05;37.90;94320.34;5067087;28;20020;-44
2022/12/29 08:47:27;;;;;;;6.07;5.25;;;;;;;16.59;37.69;94323.03;5067659;28;20110;-43
2022/12/29 08:49:52;;;;;;;8.52;6.47;;;;;;;17.66;36.17;94314.53;5070617;28;20031;-45
2022/12/29 08:52:17;;;;;;;7.88;5.68;;;;;;;18.13;34.95;94317.72;5072221;28;20027;-45
2022/12/29 08:54:43;;;;;;;9.23;5.97;;;;;;;18.45;34.57;94313.97;5064715;28;20029;-43
2022/12/29 08:57:08;;;;;;;8.10;6.60;;;;;;;18.67;34.18;94306.56;5069792;28;20020;-42
2022/12/29 08:59:34;;;;;;;11.82;6.45;;;;;;;19.06;33.89;94302.59;5072169;28;20046;-42
2022/12/29 09:02:01;;;;;;;10.38;7.13;;;;;;;19.47;33.09;94301.56;5076131;28;20024;-44
2022/12/29 09:04:27;;;;;;;9.55;8.50;;;;;;;19.06;33.08;94304.69;5072582;28;20020;-45
2022/12/29 09:06:52;;;;;;;10.70;8.20;;;;;;;19.32;32.24;94293.41;5068706;28;20028;-44
2022/12/29 09:09:18;;;;;;;12.52;8.27;;;;;;;19.93;31.32;94303.50;5064451;28;20082;-43
2022/12/29 09:11:44;;;;;;;20.45;15.82;;;;;;;19.96;31.40;94302.34;5069568;28;20519;-43
2022/12/29 09:14:09;;;;;;;9.73;7.63;;;;;;;19.09;32.19;94286.72;5067259;28;20529;-44
2022/12/29 09:16:35;;;;;;;9.07;6.38;;;;;;;19.53;32.10;94287.28;5065625;28;20024;-43
2022/12/29 09:19:01;;;;;;;7.93;5.72;;;;;;;20.14;31.42;94265.13;5065305;28;20480;-44
2022/12/29 09:21:27;;;;;;;6.50;5.05;;;;;;;20.36;30.81;94280.78;5072050;28;20024;-44
2022/12/29 09:23:52;;;;;;;7.32;6.57;;;;;;;20.15;30.48;94274.28;5062629;28;20085;-45
2022/12/29 09:26:18;;;;;;;6.95;5.20;;;;;;;20.80;29.57;94271.19;5059898;28;20408;-43
2022/12/29 09:28:44;;;;;;;7.03;6.00;;;;;;;21.27;30.12;94272.34;5063521;28;20483;-44
2022/12/29 09:31:10;;;;;;;7.85;5.55;;;;;;;21.36;29.26;94265.91;5067747;28;20047;-43
2022/12/29 09:33:35;;;;;;;8.38;5.80;;;;;;;21.53;29.26;94243.16;5066842;28;20154;-44
2022/12/29 09:36:01;;;;;;;5.95;4.93;;;;;;;21.09;30.22;94257.81;5059042;28;20025;-44
2022/12/29 09:38:27;;;;;;;5.25;4.75;;;;;;;22.00;28.89;94258.97;5067906;28;20028;-44
2022/12/29 09:41:01;;;;;;;6.93;5.65;;;;;;;22.28;28.68;94251.59;5066416;28;20025;-44
2022/12/29 09:44:07;;;;;;;6.13;5.40;;;;;;;21.04;30.44;94253.97;5061148;28;20031;-44
2022/12/29 09:46:37;;;;;;;17.67;12.25;;;;;;;22.13;28.95;94254.84;5057753;28;20086;-44
2022/12/29 09:49:24;;;;;;;14.07;9.95;;;;;;;22.00;27.95;94247.72;5062974;28;20024;-44
2022/12/29 09:51:53;;;;;;;16.13;8.60;;;;;;;21.95;29.06;94245.97;5075923;28;20043;-44
2022/12/29 09:54:43;;;;;;;14.73;9.23;;;;;;;22.24;28.73;94248.53;5061086;28;20028;-45
2022/12/29 09:57:15;;;;;;;9.32;7.75;;;;;;;22.69;27.65;94254.88;5067672;28;20112;-43
2022/12/29 09:59:42;;;;;;;9.98;7.93;;;;;;;22.45;27.87;94252.00;5067706;28;20545;-43
2022/12/29 10:02:23;;;;;;;10.40;9.10;;;;;;;22.54;27.74;94242.00;5074353;28;20019;-43
2022/12/29 10:04:49;;;;;;;9.10;7.40;;;;;;;22.64;28.06;94251.09;5072487;28;20028;-43
2022/12/29 10:07:22;;;;;;;9.20;7.22;;;;;;;22.83;27.95;94244.47;5072221;28;20085;-43
2022/12/29 10:10:25;;;;;;;8.40;5.90;;;;;;;22.95;27.88;94245.25;5072707;28;20089;-43
2022/12/29 10:13:18;;;;;;;7.15;5.95;;;;;;;22.23;27.70;94244.97;5035329;28;20476;-44
2022/12/29 10:16:20;;;;;;;9.88;6.32;;;;;;;22.40;28.01;94238.28;5071016;28;20032;-43
2022/12/29 10:18:48;;;;;;;7.72;6.18;;;;;;;22.12;28.64;94236.50;5067679;28;20447;-45
2022/12/29 10:21:25;;;;;;;9.23;6.07;;;;;;;21.80;29.05;94232.31;5070792;28;20024;-43
2022/12/29 10:23:52;;;;;;;6.95;5.47;;;;;;;21.86;29.37;94227.09;5063252;28;20036;-44
2022/12/29 10:26:23;;;;;;;10.48;8.60;;;;;;;22.35;29.75;94219.69;5074564;28;20025;-43
2022/12/29 10:28:59;;;;;;;10.35;7.40;;;;;;;22.82;28.91;94223.31;5071576;28;20040;-45
2022/12/29 10:31:32;;;;;;;10.73;7.28;;;;;;;22.51;29.42;94204.53;5045490;28;20423;-44
2022/12/29 10:34:02;;;;;;;10.20;5.75;;;;;;;22.49;27.80;94223.38;5086258;28;20053;-45
2022/12/29 10:36:34;;;;;;;7.70;6.38;;;;;;;22.38;28.09;94213.56;5064688;28;20051;-44
2022/12/29 10:39:26;;;;;;;7.07;5.85;;;;;;;22.39;29.39;94212.22;5069628;28;20474;-41
2022/12/29 10:42:09;;;;;;;9.77;5.55;;;;;;;21.92;28.78;94205.00;5067252;28;20119;-42
2022/12/29 10:44:34;;;;;;;9.43;5.85;;;;;;;21.76;28.78;94199.06;5073569;28;20039;-43
2022/12/29 10:47:12;;;;;;;9.60;6.82;;;;;;;21.41;30.73;94197.41;5068633;28;20037;-44
2022/12/29 10:49:41;;;;;;;8.27;5.40;;;;;;;22.12;29.25;94200.66;5067371;28;20461;-44
2022/12/29 10:52:07;;;;;;;6.90;5.38;;;;;;;22.35;30.03;94202.81;5063079;28;20028;-45
2022/12/29 10:54:42;;;;;;;9.48;5.85;;;;;;;22.79;29.50;94202.00;5064198;28;20038;-43
2022/12/29 10:57:11;;;;;;;6.18;4.78;;;;;;;23.03;28.40;94200.66;5069354;28;20032;-42
2022/12/29 10:59:38;;;;;;;5.35;4.50;;;;;;;22.63;28.48;94198.22;5070224;28;20056;-44
2022/12/29 11:02:06;;;;;;;9.45;8.00;;;;;;;22.44;28.55;94194.25;5069946;28;20047;-44
2022/12/29 11:05:08;;;;;;;6.43;4.60;;;;;;;22.92;28.04;94190.13;5064108;28;20028;-43
2022/12/29 11:07:34;;;;;;;7.65;6.38;;;;;;;22.33;29.40;94178.09;5062882;28;20454;-44
2022/12/29 11:10:28;;;;;;;8.13;6.55;;;;;;;22.41;29.07;94161.72;5069586;28;20025;-45
2022/12/29 11:13:01;;;;;;;6.60;6.00;;;;;;;22.38;28.96;94193.88;5067959;28;20040;-43
2022/12/29 11:15:27;;;;;;;8.48;6.78;;;;;;;22.31;29.92;94192.03;5069519;28;20021;-43
2022/12/29 11:17:56;;;;;;;12.60;6.63;;;;;;;22.37;28.88;94191.69;5065143;28;20059;-43
2022/12/29 11:20:37;;;;;;;7.93;6.57;;;;;;;22.53;28.81;94193.41;5067820;28;20032;-45
2022/12/29 11:23:05;;;;;;;6.63;5.90;;;;;;;22.31;29.46;94182.84;5064888;28;20032;-46
2022/12/29 11:25:30;;;;;;;7.65;5.97;;;;;;;22.34;29.29;94190.81;5069958;28;20161;-44
2022/12/29 11:28:16;;;;;;;7.72;6.57;;;;;;;21.85;29.18;94170.13;5070756;28;20555;-46
2022/12/29 11:30:41;;;;;;;9.25;6.93;;;;;;;21.59;30.31;94178.94;5071429;28;20317;-44
2022/12/29 11:33:08;;;;;;;7.65;6.72;;;;;;;21.70;30.59;94178.25;5071025;28;20430;-44
2022/12/29 11:35:39;;;;;;;8.60;6.90;;;;;;;21.70;30.29;94183.88;5071274;28;20041;-43
2022/12/29 11:38:04;;;;;;;7.50;5.68;;;;;;;21.74;30.25;94175.72;5071028;28;20020;-46
2022/12/29 11:40:31;;;;;;;8.05;6.82;;;;;;;21.67;30.01;94154.91;5073043;28;20025;-43
2022/12/29 11:42:59;;;;;;;8.50;7.30;;;;;;;21.46;30.28;94176.69;5067659;28;20028;-43
2022/12/29 11:45:27;;;;;;;8.00;7.20;;;;;;;21.47;30.94;94175.34;5072708;28;20024;-45
2022/12/29 11:48:02;;;;;;;7.97;6.57;;;;;;;21.19;31.28;94174.22;5067337;28;20060;-43
2022/12/29 11:50:32;;;;;;;12.70;7.13;;;;;;;21.12;31.17;94169.53;5069580;28;20033;-45
2022/12/29 11:53:43;;;;;;;8.68;7.15;;;;;;;20.73;31.68;94169.00;5070918;28;20032;-45
2022/12/29 11:56:11;;;;;;;9.70;7.50;;;;;;;20.61;31.88;94164.63;5090916;28;20507;-48
2022/12/29 11:58:37;;;;;;;9.07;6.93;;;;;;;20.02;32.25;94132.53;5061850;28;20033;-44
2022/12/29 12:01:12;;;;;;;9.40;6.50;;;;;;;20.42;32.31;94162.66;5097679;27;20038;-44
2022/12/29 12:04:08;;;;;;;11.70;6.80;;;;;;;20.44;32.31;94162.81;5065923;28;20060;-44
2022/12/29 12:06:40;;;;;;;7.45;6.70;;;;;;;20.43;32.58;94122.06;5100114;27;20036;-43
2022/12/29 12:09:10;;;;;;;7.80;6.70;;;;;;;20.35;32.36;94153.09;5065631;28;20028;-44
2022/12/29 12:11:43;;;;;;;7.15;6.38;;;;;;;20.45;32.01;94158.66;5116029;27;20133;-43
2022/12/29 12:14:46;;;;;;;12.13;7.50;;;;;;;19.96;33.61;94159.38;5078862;28;20029;-43
2022/12/29 12:17:27;;;;;;;9.38;7.95;;;;;;;19.50;34.18;94151.94;5038176;28;20553;-44
2022/12/29 12:20:16;;;;;;;8.85;7.45;;;;;;;19.21;34.90;94159.56;5060609;28;20029;-44
2022/12/29 12:22:46;;;;;;;9.70;7.72;;;;;;;19.03;34.63;94152.66;5063019;28;20112;-45